Time;durP1;ratioP1;P1;durP2;ratioP2;P2;SDS_P1;SDS_P2;PMS_P1;PMS_P2;Temp;Humidity;BMP_temperature;BMP_pressure;BME280_temperature;BME280_humidity;BME280_pressure;Samples;Min_cycle;Max_cycle;Signal;HPM_P1;HPM_P2
2022/08/22 00:00:11;;;;;;;9.38;2.88;;;;;;;;;;4164629;28;20111;-55
2022/08/22 00:02:27;;;;;;;7.45;2.53;;;;;;;;;;4183801;28;20415;-56
2022/08/22 00:04:43;;;;;;;9.18;2.60;;;;;;;;;;4189187;28;20037;-54
2022/08/22 00:06:51;;;;;;;4.90;2.20;;;;;;;;;;4190239;28;20090;-55
2022/08/22 00:08:57;;;;;;;5.82;2.28;;;;;;;;;;4186178;28;20048;-52
2022/08/22 00:10:58;;;;;;;8.27;2.42;;;;;;;;;;4195757;28;20483;-54
2022/08/22 00:13:02;;;;;;;9.00;2.78;;;;;;;;;;4206921;28;20036;-54
2022/08/22 00:15:09;;;;;;;7.45;2.05;;;;;;;;;;4184324;28;20480;-53
2022/08/22 00:17:16;;;;;;;6.78;2.20;;;;;;;;;;4181219;28;20443;-55
2022/08/22 00:19:43;;;;;;;8.95;2.28;;;;;;;;;;4196903;28;20077;-51
2022/08/22 00:21:53;;;;;;;9.05;2.42;;;;;;;;;;4157137;28;20094;-53
2022/08/22 00:24:00;;;;;;;7.80;1.85;;;;;;;;;;4184301;28;20040;-56
2022/08/22 00:26:20;;;;;;;6.95;1.92;;;;;;;;;;4184076;28;20419;-53
2022/08/22 00:28:28;;;;;;;12.68;2.30;;;;;;;;;;4195695;28;20044;-53
2022/08/22 00:30:50;;;;;;;8.02;2.10;;;;;;;;;;4180599;28;20048;-53
2022/08/22 00:33:02;;;;;;;8.00;1.73;;;;;;;;;;4190410;28;20032;-54
2022/08/22 00:35:24;;;;;;;6.80;2.05;;;;;;;;;;4188608;28;20063;-60
2022/08/22 00:37:28;;;;;;;7.70;2.58;;;;;;;;;;4197105;28;20094;-54
2022/08/22 00:39:29;;;;;;;5.47;1.95;;;;;;;;;;4197342;28;20020;-56
2022/08/22 00:41:40;;;;;;;4.85;2.03;;;;;;;;;;4186248;28;20388;-56
2022/08/22 00:43:47;;;;;;;11.85;2.28;;;;;;;;;;4186785;28;20097;-54
2022/08/22 00:45:54;;;;;;;12.52;1.83;;;;;;;;;;4194916;28;20037;-60
2022/08/22 00:48:11;;;;;;;8.20;1.80;;;;;;;;;;4185481;28;20094;-54
2022/08/22 00:50:11;;;;;;;6.80;1.88;;;;;;;;;;4205052;28;20059;-53
2022/08/22 00:52:18;;;;;;;5.82;1.88;;;;;;;;;;4186873;28;20029;-55
2022/08/22 00:54:19;;;;;;;7.85;1.63;;;;;;;;;;4180738;28;20029;-53
2022/08/22 00:56:20;;;;;;;9.02;2.30;;;;;;;;;;4196925;28;20102;-55
2022/08/22 00:58:35;;;;;;;7.05;1.88;;;;;;;;;;4202514;28;20040;-54
2022/08/22 01:00:42;;;;;;;5.60;1.90;;;;;;;;;;4213790;28;20396;-55
2022/08/22 01:02:55;;;;;;;6.20;2.45;;;;;;;;;;4213788;28;20260;-54
2022/08/22 01:05:15;;;;;;;6.68;1.80;;;;;;;;;;4201779;28;20048;-54
2022/08/22 01:07:18;;;;;;;16.67;2.42;;;;;;;;;;4196096;28;20033;-51
2022/08/22 01:09:36;;;;;;;7.70;2.15;;;;;;;;;;4186654;28;20368;-49
2022/08/22 01:11:49;;;;;;;10.50;2.15;;;;;;;;;;4180233;28;20094;-50
2022/08/22 01:13:52;;;;;;;9.45;1.92;;;;;;;;;;4195732;28;20479;-51
2022/08/22 01:15:59;;;;;;;14.98;1.70;;;;;;;;;;4196588;28;20090;-51
2022/08/22 01:18:32;;;;;;;10.98;2.17;;;;;;;;;;4181879;28;20488;-51
2022/08/22 01:20:33;;;;;;;15.80;1.92;;;;;;;;;;4136662;28;20033;-49
2022/08/22 01:22:34;;;;;;;11.93;2.15;;;;;;;;;;4180528;28;20040;-49
2022/08/22 01:27:33;;;;;;;6.38;1.83;;;;;;;;;;4181069;28;20472;-54
2022/08/22 01:29:43;;;;;;;7.85;1.73;;;;;;;;;;4180360;28;20087;-52
2022/08/22 01:31:47;;;;;;;4.70;1.83;;;;;;;;;;4179975;28;20094;-53
2022/08/22 01:33:56;;;;;;;8.38;1.80;;;;;;;;;;4180428;28;20078;-54
2022/08/22 01:36:14;;;;;;;5.80;1.95;;;;;;;;;;4180419;28;20098;-50
2022/08/22 01:38:16;;;;;;;9.20;1.70;;;;;;;;;;4180470;28;20091;-53
2022/08/22 01:40:23;;;;;;;8.93;1.85;;;;;;;;;;4171642;28;20033;-53
2022/08/22 01:42:27;;;;;;;8.38;1.90;;;;;;;;;;4182679;28;20040;-53
2022/08/22 01:44:33;;;;;;;8.85;1.58;;;;;;;;;;4189817;28;20040;-54
2022/08/22 01:46:53;;;;;;;7.30;1.60;;;;;;;;;;4211798;28;20036;-55
2022/08/22 01:48:54;;;;;;;10.90;1.90;;;;;;;;;;4201881;28;20090;-54
2022/08/22 01:51:01;;;;;;;5.60;1.70;;;;;;;;;;4195536;28;20029;-54
2022/08/22 01:53:15;;;;;;;6.18;1.60;;;;;;;;;;4196696;28;20094;-53
2022/08/22 01:55:37;;;;;;;6.68;1.70;;;;;;;;;;4191354;28;20020;-55
2022/08/22 01:57:58;;;;;;;8.90;1.65;;;;;;;;;;4196631;28;20044;-54
2022/08/22 02:00:07;;;;;;;9.10;2.22;;;;;;;;;;4196349;28;20040;-51
2022/08/22 02:02:11;;;;;;;7.57;1.55;;;;;;;;;;4196580;28;20121;-54
2022/08/22 02:04:30;;;;;;;4.85;1.45;;;;;;;;;;4207904;28;20036;-55
2022/08/22 02:06:39;;;;;;;7.65;1.70;;;;;;;;;;4204722;28;20527;-53
2022/08/22 02:08:46;;;;;;;7.30;1.92;;;;;;;;;;4199479;28;20085;-54
2022/08/22 02:11:00;;;;;;;12.20;2.28;;;;;;;;;;4192248;28;20098;-52
2022/08/22 02:13:05;;;;;;;33.50;3.38;;;;;;;;;;4180829;28;20037;-53
2022/08/22 02:15:12;;;;;;;18.50;2.58;;;;;;;;;;4180025;28;20041;-54
2022/08/22 02:17:13;;;;;;;11.63;2.25;;;;;;;;;;4179838;28;20033;-52
2022/08/22 02:19:14;;;;;;;15.73;2.05;;;;;;;;;;4179938;28;20041;-53
2022/08/22 02:21:19;;;;;;;10.25;2.60;;;;;;;;;;4179904;28;20464;-51
2022/08/22 02:23:38;;;;;;;7.28;1.90;;;;;;;;;;4179147;28;20090;-49
2022/08/22 02:25:45;;;;;;;8.23;1.88;;;;;;;;;;4192108;28;20067;-53
2022/08/22 02:27:52;;;;;;;7.60;1.88;;;;;;;;;;4193343;28;20074;-52
2022/08/22 02:30:13;;;;;;;4.97;1.45;;;;;;;;;;4179960;28;20431;-52
2022/08/22 02:32:35;;;;;;;11.85;2.00;;;;;;;;;;4183432;28;20538;-54
2022/08/22 02:34:43;;;;;;;7.78;1.65;;;;;;;;;;4192391;28;20082;-54
2022/08/22 02:36:49;;;;;;;12.02;1.90;;;;;;;;;;4195596;28;20045;-55
2022/08/22 02:38:50;;;;;;;7.47;1.70;;;;;;;;;;4181116;28;20044;-51
2022/08/22 02:41:13;;;;;;;7.55;1.70;;;;;;;;;;4180107;28;20040;-53
2022/08/22 02:43:17;;;;;;;5.53;1.92;;;;;;;;;;4189029;28;20089;-52
2022/08/22 02:45:39;;;;;;;8.48;1.83;;;;;;;;;;4195913;28;20521;-55
2022/08/22 02:48:09;;;;;;;9.90;1.92;;;;;;;;;;4196511;28;20032;-55
2022/08/22 02:50:13;;;;;;;8.20;2.00;;;;;;;;;;4115437;28;20046;-54
2022/08/22 02:52:13;;;;;;;5.50;1.83;;;;;;;;;;4115918;28;20093;-54
2022/08/22 02:54:26;;;;;;;8.32;2.33;;;;;;;;;;4146488;28;20036;-55
2022/08/22 02:56:40;;;;;;;8.43;2.50;;;;;;;;;;4198899;28;20484;-54
2022/08/22 02:58:53;;;;;;;8.02;2.40;;;;;;;;;;4198271;28;20062;-54
2022/08/22 03:00:57;;;;;;;7.05;2.10;;;;;;;;;;4196472;28;20164;-53
2022/08/22 03:02:57;;;;;;;7.07;1.80;;;;;;;;;;4193023;28;20153;-55
2022/08/22 03:05:17;;;;;;;8.88;1.60;;;;;;;;;;4184097;28;20076;-53
2022/08/22 03:07:20;;;;;;;6.88;1.85;;;;;;;;;;4182525;28;20059;-53
2022/08/22 03:09:24;;;;;;;8.40;2.00;;;;;;;;;;4182598;28;20476;-53
2022/08/22 03:11:28;;;;;;;10.07;1.83;;;;;;;;;;4182414;28;20103;-53
2022/08/22 03:13:55;;;;;;;5.22;1.65;;;;;;;;;;4182599;28;20406;-50
2022/08/22 03:16:03;;;;;;;8.23;2.22;;;;;;;;;;4194462;28;20074;-53
2022/08/22 03:18:22;;;;;;;8.95;2.08;;;;;;;;;;4198396;28;20044;-54
2022/08/22 03:20:47;;;;;;;6.88;1.45;;;;;;;;;;4186552;28;20369;-55
2022/08/22 03:22:54;;;;;;;3.92;1.38;;;;;;;;;;4182195;28;20033;-50
2022/08/22 03:25:01;;;;;;;4.63;1.58;;;;;;;;;;4181952;28;20029;-53
2022/08/22 03:27:23;;;;;;;4.03;1.77;;;;;;;;;;4182251;28;20523;-52
2022/08/22 03:29:27;;;;;;;3.67;1.38;;;;;;;;;;4181944;28;20072;-52
2022/08/22 03:31:28;;;;;;;;;;;;;;;;;;4182779;28;20118;-52
2022/08/22 03:33:30;;;;;;;3.85;1.52;;;;;;;;;;4182270;28;19908;-55
2022/08/22 03:35:36;;;;;;;4.05;1.58;;;;;;;;;;4182058;28;20095;-56
2022/08/22 03:37:43;;;;;;;6.15;2.33;;;;;;;;;;4182167;28;20037;-49
2022/08/22 03:39:44;;;;;;;5.93;2.38;;;;;;;;;;4182358;28;20037;-53
2022/08/22 03:41:45;;;;;;;2.50;1.50;;;;;;;;;;4181657;28;20443;-52
2022/08/22 03:43:52;;;;;;;2.60;1.23;;;;;;;;;;4182136;28;20098;-52
2022/08/22 03:46:11;;;;;;;4.32;1.50;;;;;;;;;;4182216;28;20029;-54
2022/08/22 03:48:30;;;;;;;2.80;1.67;;;;;;;;;;4183427;28;20032;-54
2022/08/22 03:50:50;;;;;;;4.75;1.70;;;;;;;;;;4198280;28;20102;-54
2022/08/22 03:53:23;;;;;;;4.72;1.55;;;;;;;;;;4189035;28;20045;-52
2022/08/22 03:55:33;;;;;;;5.85;1.73;;;;;;;;;;4127069;28;20457;-51
2022/08/22 03:57:53;;;;;;;3.78;1.40;;;;;;;;;;4197625;28;20097;-52
2022/08/22 04:00:00;;;;;;;4.05;1.70;;;;;;;;;;4198132;28;20025;-52
2022/08/22 04:02:19;;;;;;;6.70;1.70;;;;;;;;;;4198845;28;20416;-53
2022/08/22 04:04:38;;;;;;;2.80;1.30;;;;;;;;;;4197576;28;20422;-52
2022/08/22 04:07:03;;;;;;;4.70;1.50;;;;;;;;;;4197588;28;20056;-53
2022/08/22 04:09:33;;;;;;;1.92;1.25;;;;;;;;;;4189024;28;20094;-54
2022/08/22 04:11:43;;;;;;;6.50;1.52;;;;;;;;;;4176513;28;20032;-55
2022/08/22 04:14:02;;;;;;;8.77;1.60;;;;;;;;;;4197960;28;20434;-54
2022/08/22 04:16:21;;;;;;;2.50;1.30;;;;;;;;;;4198248;28;20032;-55
2022/08/22 04:18:42;;;;;;;2.78;1.42;;;;;;;;;;4193005;28;20090;-54
2022/08/22 04:20:55;;;;;;;5.72;1.48;;;;;;;;;;4140549;28;20033;-53
2022/08/22 04:23:14;;;;;;;3.92;2.10;;;;;;;;;;4182235;28;20041;-54
2022/08/22 04:25:37;;;;;;;5.57;1.55;;;;;;;;;;4184833;28;20063;-55
2022/08/22 04:27:50;;;;;;;6.03;1.50;;;;;;;;;;4196828;28;20033;-56
2022/08/22 04:29:57;;;;;;;3.00;1.20;;;;;;;;;;4184169;28;20045;-56
2022/08/22 04:32:15;;;;;;;5.40;1.40;;;;;;;;;;4181673;28;20094;-54
2022/08/22 04:34:35;;;;;;;6.72;1.17;;;;;;;;;;4181166;28;20051;-54
2022/08/22 04:36:49;;;;;;;3.60;1.02;;;;;;;;;;4186983;28;20109;-53
2022/08/22 04:38:56;;;;;;;3.78;1.27;;;;;;;;;;4214376;28;20036;-55
2022/08/22 04:41:02;;;;;;;5.07;1.23;;;;;;;;;;4197339;28;20345;-54
2022/08/22 04:43:23;;;;;;;4.53;1.40;;;;;;;;;;4188791;28;20432;-56
2022/08/22 04:45:28;;;;;;;4.03;1.15;;;;;;;;;;4180282;28;20416;-53
2022/08/22 04:47:38;;;;;;;2.85;1.20;;;;;;;;;;4181018;28;20087;-58
2022/08/22 04:49:42;;;;;;;5.38;1.70;;;;;;;;;;4181215;28;20044;-51
2022/08/22 04:51:43;;;;;;;4.87;1.37;;;;;;;;;;4180414;28;20032;-53
2022/08/22 04:53:46;;;;;;;2.40;1.23;;;;;;;;;;4181161;28;20269;-56
2022/08/22 04:56:16;;;;;;;4.68;1.40;;;;;;;;;;4164729;28;20140;-53
2022/08/22 04:58:25;;;;;;;2.28;1.30;;;;;;;;;;4180923;28;20401;-51
2022/08/22 05:00:34;;;;;;;3.42;1.20;;;;;;;;;;4180433;28;20033;-53
2022/08/22 05:02:37;;;;;;;2.63;1.00;;;;;;;;;;4180519;28;20086;-54
2022/08/22 05:04:43;;;;;;;3.25;1.30;;;;;;;;;;4162764;28;20037;-54
2022/08/22 05:06:47;;;;;;;4.53;1.63;;;;;;;;;;4180420;28;20040;-53
2022/08/22 05:08:48;;;;;;;2.45;1.08;;;;;;;;;;4180342;28;20431;-54
2022/08/22 05:10:50;;;;;;;1.85;1.20;;;;;;;;;;4180495;28;20037;-55
2022/08/22 05:12:59;;;;;;;1.88;1.10;;;;;;;;;;4180108;28;20090;-54
2022/08/22 05:15:18;;;;;;;2.53;1.20;;;;;;;;;;4196153;28;20037;-53
2022/08/22 05:17:24;;;;;;;3.53;0.93;;;;;;;;;;4197290;28;20032;-52
2022/08/22 05:19:29;;;;;;;2.85;1.10;;;;;;;;;;4189357;28;20083;-54
2022/08/22 05:21:30;;;;;;;;;;;;;;;;;;4180314;28;20060;-55
2022/08/22 05:23:33;;;;;;;2.00;0.95;;;;;;;;;;4179964;28;19951;-50
2022/08/22 05:25:35;;;;;;;1.50;1.05;;;;;;;;;;4180706;28;20044;-54
2022/08/22 05:27:42;;;;;;;1.70;1.30;;;;;;;;;;4180553;28;20028;-53
2022/08/22 05:29:45;;;;;;;1.42;1.17;;;;;;;;;;4180613;28;20431;-54
2022/08/22 05:32:12;;;;;;;2.28;0.90;;;;;;;;;;4180644;28;20473;-54
2022/08/22 05:34:15;;;;;;;2.38;1.10;;;;;;;;;;4177127;28;20032;-51
2022/08/22 05:36:22;;;;;;;1.65;1.15;;;;;;;;;;4181245;28;20017;-54
2022/08/22 05:38:26;;;;;;;1.85;1.10;;;;;;;;;;4212984;28;20040;-50
2022/08/22 05:40:29;;;;;;;1.98;1.30;;;;;;;;;;4212974;28;20036;-51
2022/08/22 05:42:36;;;;;;;2.05;1.15;;;;;;;;;;4213756;28;20036;-53
2022/08/22 05:44:41;;;;;;;1.92;1.10;;;;;;;;;;4213358;28;20078;-54
2022/08/22 05:46:43;;;;;;;2.40;0.90;;;;;;;;;;4213133;28;20097;-51
2022/08/22 05:48:49;;;;;;;1.73;1.20;;;;;;;;;;4183783;28;20362;-53
2022/08/22 05:51:09;;;;;;;3.53;0.90;;;;;;;;;;4179628;28;20037;-54
2022/08/22 05:53:22;;;;;;;2.28;1.13;;;;;;;;;;4180121;28;20441;-51
2022/08/22 05:55:28;;;;;;;2.40;1.33;;;;;;;;;;4180911;28;20663;-54
2022/08/22 05:57:32;;;;;;;1.63;1.15;;;;;;;;;;4190799;28;20095;-53
2022/08/22 05:59:34;;;;;;;3.20;1.10;;;;;;;;;;4180442;28;20049;-56
2022/08/22 06:01:37;;;;;;;2.50;1.08;;;;;;;;;;4183475;28;20362;-52
2022/08/22 06:03:51;;;;;;;2.28;0.85;;;;;;;;;;4183537;28;20469;-51
2022/08/22 06:05:55;;;;;;;2.00;1.23;;;;;;;;;;4190192;28;20094;-51
2022/08/22 06:08:07;;;;;;;1.67;1.10;;;;;;;;;;4183575;28;20450;-53
2022/08/22 06:10:08;;;;;;;4.22;1.20;;;;;;;;;;4179499;28;20086;-52
2022/08/22 06:12:18;;;;;;;1.45;1.00;;;;;;;;;;4181793;28;20040;-54
2022/08/22 06:14:27;;;;;;;1.48;0.82;;;;;;;;;;4183015;28;20029;-53
2022/08/22 06:16:34;;;;;;;1.10;0.80;;;;;;;;;;4193654;28;20028;-52
2022/08/22 06:18:36;;;;;;;1.88;0.88;;;;;;;;;;4185729;28;20041;-54
2022/08/22 06:20:54;;;;;;;1.65;1.15;;;;;;;;;;4179532;28;20045;-51
2022/08/22 06:22:58;;;;;;;3.17;1.00;;;;;;;;;;4180856;28;20045;-54
2022/08/22 06:25:07;;;;;;;1.55;1.02;;;;;;;;;;4187753;28;20413;-54
2022/08/22 06:27:10;;;;;;;1.70;1.00;;;;;;;;;;4199614;28;20037;-53
2022/08/22 06:29:14;;;;;;;3.30;1.00;;;;;;;;;;4194905;28;20029;-53
2022/08/22 06:31:15;;;;;;;;;;;;;;;;;;4183044;28;20067;-53
2022/08/22 06:33:19;;;;;;;2.22;1.05;;;;;;;;;;4182978;28;19909;-54
2022/08/22 06:37:58;;;;;;;1.38;0.73;;;;;;;;;;4185055;28;20156;-53
2022/08/22 06:40:01;;;;;;;2.55;0.80;;;;;;;;;;4198391;28;20032;-51
2022/08/22 06:42:13;;;;;;;2.40;0.90;;;;;;;;;;4194090;28;20102;-55
2022/08/22 06:44:15;;;;;;;1.95;1.13;;;;;;;;;;4197179;28;20036;-54
2022/08/22 06:46:16;;;;;;;1.92;1.00;;;;;;;;;;4193522;28;20033;-51
2022/08/22 06:48:20;;;;;;;2.80;0.93;;;;;;;;;;4165231;28;20056;-54
2022/08/22 06:50:29;;;;;;;1.90;0.90;;;;;;;;;;4196274;28;20045;-55
2022/08/22 06:52:33;;;;;;;1.48;0.93;;;;;;;;;;4182753;28;20033;-53
2022/08/22 06:54:35;;;;;;;1.38;0.90;;;;;;;;;;4190584;28;20040;-53
2022/08/22 06:56:47;;;;;;;1.88;1.00;;;;;;;;;;4196752;28;20113;-53
2022/08/22 06:58:49;;;;;;;1.70;0.90;;;;;;;;;;4196830;28;20117;-53
2022/08/22 07:01:01;;;;;;;1.95;0.95;;;;;;;;;;4189187;28;20036;-54
2022/08/22 07:03:19;;;;;;;2.90;0.95;;;;;;;;;;4186990;28;20037;-53
2022/08/22 07:05:24;;;;;;;1.27;0.70;;;;;;;;;;4163780;28;20049;-52
2022/08/22 07:07:29;;;;;;;1.08;0.90;;;;;;;;;;4167170;28;20094;-54
2022/08/22 07:09:37;;;;;;;0.98;0.82;;;;;;;;;;4168644;28;20407;-53
2022/08/22 07:11:40;;;;;;;1.58;0.90;;;;;;;;;;4180825;28;20045;-50
2022/08/22 07:13:43;;;;;;;2.25;0.95;;;;;;;;;;4180858;28;20098;-53
2022/08/22 07:15:54;;;;;;;2.15;0.80;;;;;;;;;;4181212;28;20036;-54
2022/08/22 07:17:57;;;;;;;1.02;0.80;;;;;;;;;;4182930;28;20040;-55
2022/08/22 07:20:06;;;;;;;0.93;0.70;;;;;;;;;;4168266;28;20045;-55
2022/08/22 07:22:24;;;;;;;1.67;0.90;;;;;;;;;;4182046;28;20037;-55
2022/08/22 07:24:28;;;;;;;1.63;0.70;;;;;;;;;;4180957;28;20029;-53
2022/08/22 07:26:38;;;;;;;1.23;0.90;;;;;;;;;;4165936;28;20045;-53
2022/08/22 07:28:43;;;;;;;1.98;0.80;;;;;;;;;;4169371;28;20542;-51
2022/08/22 07:30:50;;;;;;;1.02;0.82;;;;;;;;;;4166054;28;20071;-54
2022/08/22 07:32:54;;;;;;;1.58;1.02;;;;;;;;;;4165865;28;20453;-54
2022/08/22 07:35:03;;;;;;;1.42;1.00;;;;;;;;;;4180247;28;20384;-53
2022/08/22 07:37:06;;;;;;;1.85;0.80;;;;;;;;;;4180545;28;20094;-52
2022/08/22 07:39:15;;;;;;;1.50;0.80;;;;;;;;;;4180814;28;20099;-53
2022/08/22 07:41:22;;;;;;;1.50;0.80;;;;;;;;;;4182384;28;20419;-52
2022/08/22 07:43:36;;;;;;;0.77;0.70;;;;;;;;;;4172262;28;20148;-54
2022/08/22 07:45:51;;;;;;;1.40;0.80;;;;;;;;;;4178458;28;20102;-54
2022/08/22 07:48:10;;;;;;;0.90;0.70;;;;;;;;;;4181377;28;20453;-52
2022/08/22 07:50:15;;;;;;;1.75;0.52;;;;;;;;;;4165608;28;20439;-53
2022/08/22 07:52:17;;;;;;;1.05;0.82;;;;;;;;;;4164288;28;20033;-50
2022/08/22 07:54:24;;;;;;;2.10;0.60;;;;;;;;;;4166141;28;20103;-54
2022/08/22 07:56:26;;;;;;;1.38;0.65;;;;;;;;;;4165396;28;20084;-51
2022/08/22 07:58:28;;;;;;;1.42;0.70;;;;;;;;;;4165739;28;20095;-53
2022/08/22 08:00:30;;;;;;;0.77;0.60;;;;;;;;;;4169262;28;20082;-54
2022/08/22 08:02:31;;;;;;;1.27;0.88;;;;;;;;;;4181914;28;20037;-53
2022/08/22 08:04:33;;;;;;;1.23;0.90;;;;;;;;;;4182229;28;20063;-51
2022/08/22 08:06:35;;;;;;;1.95;0.70;;;;;;;;;;4198044;28;20074;-52
2022/08/22 08:08:49;;;;;;;1.05;0.70;;;;;;;;;;4198249;28;20094;-53
2022/08/22 08:10:51;;;;;;;1.00;0.90;;;;;;;;;;4197607;28;20365;-52
2022/08/22 08:12:54;;;;;;;0.85;0.60;;;;;;;;;;4198698;28;20070;-50
2022/08/22 08:14:55;;;;;;;0.80;0.80;;;;;;;;;;4197675;28;20107;-53
2022/08/22 08:17:09;;;;;;;1.20;0.60;;;;;;;;;;4197899;28;20036;-55
2022/08/22 08:19:11;;;;;;;0.80;0.80;;;;;;;;;;4192833;28;20036;-53
2022/08/22 08:21:15;;;;;;;1.20;0.80;;;;;;;;;;4182231;28;20032;-53
2022/08/22 08:23:18;;;;;;;2.40;0.70;;;;;;;;;;4163765;28;20087;-53
2022/08/22 08:25:25;;;;;;;0.75;0.63;;;;;;;;;;4181601;28;20090;-53
2022/08/22 08:29:54;;;;;;;0.73;0.68;;;;;;;;;;4183684;28;20049;-53
2022/08/22 08:31:55;;;;;;;1.20;0.80;;;;;;;;;;4195185;28;20041;-55
2022/08/22 08:33:58;;;;;;;0.47;0.47;;;;;;;;;;4186205;28;20033;-53
2022/08/22 08:36:09;;;;;;;0.90;0.70;;;;;;;;;;4196935;28;20112;-53
2022/08/22 08:38:18;;;;;;;1.23;0.70;;;;;;;;;;4193552;28;20082;-54
2022/08/22 08:40:19;;;;;;;1.33;0.90;;;;;;;;;;4193306;28;20093;-53
2022/08/22 08:45:00;;;;;;;0.80;0.70;;;;;;;;;;4185550;28;20033;-52
2022/08/22 08:47:11;;;;;;;1.77;0.70;;;;;;;;;;4189861;28;20032;-53
2022/08/22 08:49:28;;;;;;;0.70;0.70;;;;;;;;;;4195048;28;20529;-51
2022/08/22 08:51:47;;;;;;;1.13;0.60;;;;;;;;;;4180448;28;20420;-50
2022/08/22 08:54:01;;;;;;;0.95;0.65;;;;;;;;;;4181156;28;20045;-52
2022/08/22 08:56:11;;;;;;;0.55;0.55;;;;;;;;;;4181939;28;20041;-54
2022/08/22 08:58:18;;;;;;;0.75;0.75;;;;;;;;;;4186325;28;20094;-53
2022/08/22 09:00:44;;;;;;;1.17;0.70;;;;;;;;;;4195710;28;20040;-50
2022/08/22 09:03:03;;;;;;;0.70;0.63;;;;;;;;;;4195490;28;20383;-53
2022/08/22 09:05:22;;;;;;;1.48;0.65;;;;;;;;;;4195441;28;20044;-54
2022/08/22 09:07:41;;;;;;;0.68;0.57;;;;;;;;;;4193728;28;20098;-54
2022/08/22 09:09:48;;;;;;;0.63;0.63;;;;;;;;;;4180687;28;20067;-51
2022/08/22 09:12:00;;;;;;;0.60;0.50;;;;;;;;;;4180284;28;20041;-53
2022/08/22 09:14:04;;;;;;;0.70;0.60;;;;;;;;;;4187982;28;20036;-53
2022/08/22 09:16:07;;;;;;;0.80;0.73;;;;;;;;;;4190842;28;20411;-54
2022/08/22 09:18:14;;;;;;;1.38;0.80;;;;;;;;;;4184671;28;20028;-54
2022/08/22 09:20:15;;;;;;;0.80;0.63;;;;;;;;;;4183400;28;20044;-53
2022/08/22 09:22:34;;;;;;;1.10;0.70;;;;;;;;;;4189831;28;20059;-55
2022/08/22 09:24:54;;;;;;;0.95;0.60;;;;;;;;;;4194917;28;20094;-55
2022/08/22 09:26:56;;;;;;;0.60;0.50;;;;;;;;;;4180709;28;20392;-54
2022/08/22 09:29:36;;;;;;;0.75;0.55;;;;;;;;;;4183004;28;20426;-55
2022/08/22 09:31:44;;;;;;;0.68;0.60;;;;;;;;;;4104723;28;20121;-55
2022/08/22 09:33:58;;;;;;;0.80;0.57;;;;;;;;;;4110296;28;20094;-54
2022/08/22 09:36:02;;;;;;;0.88;0.70;;;;;;;;;;4109839;28;20454;-54
2022/08/22 09:38:38;;;;;;;0.50;0.50;;;;;;;;;;4113990;28;20557;-53
2022/08/22 09:40:43;;;;;;;0.85;0.60;;;;;;;;;;4034464;29;20045;-53
2022/08/22 09:42:53;;;;;;;0.90;0.68;;;;;;;;;;4095846;28;20032;-54
2022/08/22 09:45:13;;;;;;;0.50;0.50;;;;;;;;;;4189149;28;20070;-53
2022/08/22 09:47:29;;;;;;;0.57;0.57;;;;;;;;;;4184510;28;20033;-54
2022/08/22 09:49:45;;;;;;;1.08;0.80;;;;;;;;;;4193881;28;20557;-53
2022/08/22 09:52:04;;;;;;;1.08;0.70;;;;;;;;;;4196450;28;20066;-52
2022/08/22 09:54:17;;;;;;;0.93;0.70;;;;;;;;;;4194389;28;20427;-53
2022/08/22 09:56:25;;;;;;;0.65;0.55;;;;;;;;;;4196746;28;20040;-53
2022/08/22 09:58:37;;;;;;;1.05;0.60;;;;;;;;;;4195646;28;20091;-54
2022/08/22 10:00:59;;;;;;;0.75;0.65;;;;;;;;;;4185513;28;20496;-54
2022/08/22 10:03:22;;;;;;;0.52;0.52;;;;;;;;;;4193725;28;20033;-54
2022/08/22 10:05:27;;;;;;;1.63;0.80;;;;;;;;;;4185239;28;20041;-53
2022/08/22 10:07:28;;;;;;;1.00;0.70;;;;;;;;;;4187720;28;20032;-54
2022/08/22 10:09:41;;;;;;;0.77;0.50;;;;;;;;;;4186410;28;20527;-54
2022/08/22 10:11:53;;;;;;;1.38;0.60;;;;;;;;;;4201464;28;20094;-52
2022/08/22 10:13:59;;;;;;;0.80;0.60;;;;;;;;;;4198526;28;20097;-55
2022/08/22 10:16:15;;;;;;;0.55;0.55;;;;;;;;;;4186767;28;20017;-53
2022/08/22 10:18:25;;;;;;;0.90;0.60;;;;;;;;;;4199145;28;20369;-55
2022/08/22 10:20:31;;;;;;;0.57;0.50;;;;;;;;;;4195761;28;20557;-54
2022/08/22 10:22:32;;;;;;;0.85;0.50;;;;;;;;;;4189915;28;20037;-53
2022/08/22 10:24:52;;;;;;;0.85;0.60;;;;;;;;;;4195840;28;20048;-54
2022/08/22 10:26:54;;;;;;;0.85;0.70;;;;;;;;;;4191158;28;20098;-53
2022/08/22 10:28:55;;;;;;;0.50;0.50;;;;;;;;;;4201978;28;20434;-54
2022/08/22 10:31:10;;;;;;;0.57;0.57;;;;;;;;;;4192901;28;20033;-53
2022/08/22 10:33:14;;;;;;;1.48;0.68;;;;;;;;;;4190084;28;20028;-53
2022/08/22 10:35:22;;;;;;;0.87;0.60;;;;;;;;;;4201886;28;20032;-54
2022/08/22 10:37:37;;;;;;;0.73;0.65;;;;;;;;;;4194928;28;20058;-54
2022/08/22 10:39:58;;;;;;;0.57;0.57;;;;;;;;;;4201732;28;20048;-55
2022/08/22 10:42:08;;;;;;;0.82;0.50;;;;;;;;;;4144344;28;20534;-54
2022/08/22 10:44:11;;;;;;;1.02;0.70;;;;;;;;;;4187324;28;20032;-55
2022/08/22 10:46:17;;;;;;;0.70;0.57;;;;;;;;;;4180260;28;20036;-55
2022/08/22 10:48:22;;;;;;;0.50;0.50;;;;;;;;;;4185076;28;20037;-54
2022/08/22 10:50:23;;;;;;;2.33;0.63;;;;;;;;;;4184657;28;20488;-54
2022/08/22 10:52:32;;;;;;;1.55;0.63;;;;;;;;;;4184718;28;20025;-54
2022/08/22 10:54:52;;;;;;;2.58;0.63;;;;;;;;;;4185157;28;20044;-55
2022/08/22 10:56:52;;;;;;;1.98;0.60;;;;;;;;;;4185120;28;20033;-52
2022/08/22 10:58:59;;;;;;;3.75;0.80;;;;;;;;;;4185094;28;20028;-55
2022/08/22 11:01:01;;;;;;;1.20;0.70;;;;;;;;;;4186645;28;20366;-55
2022/08/22 11:03:14;;;;;;;24.42;1.67;;;;;;;;;;4192360;28;20032;-56
2022/08/22 11:05:15;;;;;;;1.25;0.60;;;;;;;;;;4207212;28;20044;-53
2022/08/22 11:07:30;;;;;;;17.05;1.05;;;;;;;;;;4218118;28;20536;-55
2022/08/22 11:09:44;;;;;;;10.20;1.00;;;;;;;;;;4188839;28;20045;-54
2022/08/22 11:11:52;;;;;;;12.95;1.17;;;;;;;;;;4198212;28;20032;-55
2022/08/22 11:13:53;;;;;;;5.40;0.82;;;;;;;;;;4186282;28;20091;-62
2022/08/22 11:16:04;;;;;;;12.00;1.20;;;;;;;;;;4182918;28;20060;-61
2022/08/22 11:18:08;;;;;;;10.23;1.10;;;;;;;;;;4182595;28;20112;-61
2022/08/22 11:20:18;;;;;;;7.53;1.30;;;;;;;;;;4182416;28;20040;-62
2022/08/22 11:22:31;;;;;;;7.13;1.45;;;;;;;;;;4182897;28;20090;-61
2022/08/22 11:24:40;;;;;;;9.82;1.13;;;;;;;;;;4182193;28;20041;-62
2022/08/22 11:26:42;;;;;;;4.50;0.88;;;;;;;;;;4185441;28;20041;-60
2022/08/22 11:28:52;;;;;;;5.20;1.60;;;;;;;;;;4186431;28;20554;-60
2022/08/22 11:31:30;;;;;;;3.53;0.93;;;;;;;;;;4182435;28;20664;-61
2022/08/22 11:33:34;;;;;;;5.38;1.00;;;;;;;;;;4135644;28;20092;-62
2022/08/22 11:35:53;;;;;;;2.10;1.05;;;;;;;;;;4186974;28;20054;-61
2022/08/22 11:37:56;;;;;;;5.07;1.08;;;;;;;;;;4215336;28;20081;-62
2022/08/22 11:39:57;;;;;;;4.95;1.10;;;;;;;;;;4215246;28;20047;-62
2022/08/22 11:42:19;;;;;;;4.05;1.10;;;;;;;;;;4215386;28;20028;-61
2022/08/22 11:44:27;;;;;;;3.10;1.00;;;;;;;;;;4209256;28;20426;-62
2022/08/22 11:46:36;;;;;;;6.13;1.00;;;;;;;;;;4182148;28;20033;-62
2022/08/22 11:48:45;;;;;;;3.17;0.90;;;;;;;;;;4182189;28;20028;-61
2022/08/22 11:51:04;;;;;;;3.22;0.90;;;;;;;;;;4181863;28;20025;-62
2022/08/22 11:53:05;;;;;;;2.63;1.00;;;;;;;;;;4182241;28;20033;-61
2022/08/22 11:55:18;;;;;;;2.22;0.85;;;;;;;;;;4197602;28;20081;-62
2022/08/22 11:57:36;;;;;;;4.10;1.05;;;;;;;;;;4198557;28;20063;-62
2022/08/22 11:59:49;;;;;;;3.97;0.80;;;;;;;;;;4198720;28;20094;-62
2022/08/22 12:02:01;;;;;;;2.38;1.10;;;;;;;;;;4191429;28;20079;-61
2022/08/22 12:04:01;;;;;;;2.13;1.20;;;;;;;;;;4181825;28;20037;-62
2022/08/22 12:06:11;;;;;;;2.50;0.80;;;;;;;;;;4181931;28;20033;-63
2022/08/22 12:08:17;;;;;;;2.20;1.05;;;;;;;;;;4181576;28;20049;-62
2022/08/22 12:10:23;;;;;;;4.05;1.20;;;;;;;;;;4181838;28;20114;-62
2022/08/22 12:12:49;;;;;;;4.28;1.00;;;;;;;;;;4181728;28;20037;-61
2022/08/22 12:14:55;;;;;;;0.90;0.80;;;;;;;;;;4197209;28;20037;-61
2022/08/22 12:17:12;;;;;;;3.55;0.93;;;;;;;;;;4213404;28;20054;-62
2022/08/22 12:19:28;;;;;;;5.47;1.13;;;;;;;;;;4187882;28;20439;-62
2022/08/22 12:21:29;;;;;;;6.28;1.20;;;;;;;;;;4196052;28;20480;-62
2022/08/22 12:23:54;;;;;;;8.32;1.10;;;;;;;;;;4197948;28;20032;-61
2022/08/22 12:26:14;;;;;;;5.35;1.15;;;;;;;;;;4201803;28;20032;-62
2022/08/22 12:28:20;;;;;;;7.72;0.95;;;;;;;;;;4191859;28;20110;-62
2022/08/22 12:30:32;;;;;;;10.85;1.52;;;;;;;;;;4183679;28;20083;-61
2022/08/22 12:32:54;;;;;;;4.90;1.10;;;;;;;;;;4180554;28;20041;-62
2022/08/22 12:35:13;;;;;;;10.25;1.17;;;;;;;;;;4186366;28;20463;-63
2022/08/22 12:37:34;;;;;;;4.60;1.40;;;;;;;;;;4181255;28;20067;-63
2022/08/22 12:39:41;;;;;;;8.85;1.27;;;;;;;;;;4179611;28;20082;-63
2022/08/22 12:42:02;;;;;;;5.10;1.10;;;;;;;;;;4181598;28;20423;-62
2022/08/22 12:44:12;;;;;;;11.15;1.45;;;;;;;;;;4181909;28;20021;-63
2022/08/22 12:46:22;;;;;;;9.65;1.63;;;;;;;;;;4181286;28;20033;-63
2022/08/22 12:48:38;;;;;;;6.18;1.00;;;;;;;;;;4181024;28;20560;-63
2022/08/22 12:50:42;;;;;;;7.05;1.10;;;;;;;;;;4180886;28;20492;-63
2022/08/22 12:52:49;;;;;;;8.48;1.17;;;;;;;;;;4181054;28;20111;-63
2022/08/22 12:55:04;;;;;;;7.43;1.60;;;;;;;;;;4181873;28;20166;-63
2022/08/22 12:57:20;;;;;;;4.53;1.50;;;;;;;;;;4180232;28;20541;-63
2022/08/22 12:59:31;;;;;;;9.38;1.27;;;;;;;;;;4180916;28;20090;-61
2022/08/22 13:01:36;;;;;;;4.75;1.38;;;;;;;;;;4178139;28;20063;-63
2022/08/22 13:03:45;;;;;;;3.58;0.98;;;;;;;;;;4180918;28;20041;-63
2022/08/22 13:05:49;;;;;;;3.65;1.10;;;;;;;;;;4180849;28;20033;-63
2022/08/22 13:08:01;;;;;;;6.22;1.20;;;;;;;;;;4180596;28;20403;-62